METAR Data
IDs: Format: Raw Decoded Include TAF

Data at: 0708 UTC 23 Oct 2018

METAR for:KMWO (Middletown/Hook Fld, OH, US)
Text:KMWO 230655Z AUTO 20005KT 10SM CLR 05/02 A3014 RMK AO2 T00490019
Temperature: 4.9°C ( 41°F)
Dewpoint: 1.9°C ( 35°F) [RH = 81%]
Pressure (altimeter):30.14 inches Hg (1020.7 mb)
Winds:from the SSW (200 degrees) at 6 MPH (5 knots; 2.6 m/s)
Visibility:10 or more sm (16+ km)
Ceiling:at least 12,000 feet AGL
Clouds:sky clear below 12,000 feet AGL
QC Flag:automated observation with no human augmentation